sensor_id;sensor_type;location;lat;lon;timestamp;P1;durP1;ratioP1;P2;durP2;ratioP2
12760;SDS011;6444;49.742;6.114;2023-05-02T00:00:15;57.50;;;31.07;;
12760;SDS011;6444;49.742;6.114;2023-05-02T00:02:42;50.23;;;28.80;;
12760;SDS011;6444;49.742;6.114;2023-05-02T00:05:09;47.33;;;27.93;;
12760;SDS011;6444;49.742;6.114;2023-05-02T00:07:35;49.53;;;29.33;;
12760;SDS011;6444;49.742;6.114;2023-05-02T00:10:02;53.53;;;27.90;;
12760;SDS011;6444;49.742;6.114;2023-05-02T00:12:29;52.00;;;28.37;;
12760;SDS011;6444;49.742;6.114;2023-05-02T00:14:56;58.07;;;30.20;;
12760;SDS011;6444;49.742;6.114;2023-05-02T00:17:23;63.63;;;32.17;;
12760;SDS011;6444;49.742;6.114;2023-05-02T00:19:49;60.37;;;31.80;;
12760;SDS011;6444;49.742;6.114;2023-05-02T00:22:16;58.60;;;30.30;;
12760;SDS011;6444;49.742;6.114;2023-05-02T00:24:43;57.13;;;31.37;;
12760;SDS011;6444;49.742;6.114;2023-05-02T00:27:10;58.87;;;29.77;;
12760;SDS011;6444;49.742;6.114;2023-05-02T00:29:37;56.53;;;29.73;;
12760;SDS011;6444;49.742;6.114;2023-05-02T00:32:04;60.43;;;30.93;;
12760;SDS011;6444;49.742;6.114;2023-05-02T00:34:30;57.13;;;30.33;;
12760;SDS011;6444;49.742;6.114;2023-05-02T00:36:57;53.73;;;29.63;;
12760;SDS011;6444;49.742;6.114;2023-05-02T00:39:24;56.63;;;30.57;;
12760;SDS011;6444;49.742;6.114;2023-05-02T00:41:57;54.30;;;29.50;;
12760;SDS011;6444;49.742;6.114;2023-05-02T00:44:23;53.20;;;29.33;;
12760;SDS011;6444;49.742;6.114;2023-05-02T00:46:50;56.47;;;29.40;;
12760;SDS011;6444;49.742;6.114;2023-05-02T00:49:16;49.23;;;26.73;;
12760;SDS011;6444;49.742;6.114;2023-05-02T00:51:43;58.57;;;31.30;;
12760;SDS011;6444;49.742;6.114;2023-05-02T00:54:10;55.60;;;30.53;;
12760;SDS011;6444;49.742;6.114;2023-05-02T00:56:36;70.95;;;42.45;;
12760;SDS011;6444;49.742;6.114;2023-05-02T00:59:03;55.87;;;31.07;;
12760;SDS011;6444;49.742;6.114;2023-05-02T01:07:09;55.93;;;29.70;;
12760;SDS011;6444;49.742;6.114;2023-05-02T01:15:01;60.30;;;31.00;;
12760;SDS011;6444;49.742;6.114;2023-05-02T01:17:27;62.87;;;31.90;;
12760;SDS011;6444;49.742;6.114;2023-05-02T01:19:55;86.32;;;49.65;;
12760;SDS011;6444;49.742;6.114;2023-05-02T01:22:20;89.50;;;40.37;;
12760;SDS011;6444;49.742;6.114;2023-05-02T01:30:08;131.57;;;38.17;;
12760;SDS011;6444;49.742;6.114;2023-05-02T01:32:34;88.73;;;35.07;;
12760;SDS011;6444;49.742;6.114;2023-05-02T01:35:01;127.37;;;35.43;;
12760;SDS011;6444;49.742;6.114;2023-05-02T01:37:27;132.13;;;38.10;;
12760;SDS011;6444;49.742;6.114;2023-05-02T01:39:54;114.03;;;36.27;;
12760;SDS011;6444;49.742;6.114;2023-05-02T01:42:21;76.17;;;33.73;;
12760;SDS011;6444;49.742;6.114;2023-05-02T01:44:48;72.60;;;34.00;;
12760;SDS011;6444;49.742;6.114;2023-05-02T01:47:15;63.50;;;33.17;;
12760;SDS011;6444;49.742;6.114;2023-05-02T01:49:41;68.27;;;33.00;;
12760;SDS011;6444;49.742;6.114;2023-05-02T01:52:09;76.73;;;34.60;;
12760;SDS011;6444;49.742;6.114;2023-05-02T01:54:35;76.97;;;34.87;;
12760;SDS011;6444;49.742;6.114;2023-05-02T01:57:01;137.87;;;36.70;;
12760;SDS011;6444;49.742;6.114;2023-05-02T01:59:29;63.77;;;31.37;;
12760;SDS011;6444;49.742;6.114;2023-05-02T02:01:55;69.60;;;32.83;;
12760;SDS011;6444;49.742;6.114;2023-05-02T02:04:22;70.60;;;33.87;;
12760;SDS011;6444;49.742;6.114;2023-05-02T02:06:56;84.63;;;37.43;;
12760;SDS011;6444;49.742;6.114;2023-05-02T02:09:22;109.77;;;38.70;;
12760;SDS011;6444;49.742;6.114;2023-05-02T02:11:51;128.77;;;56.88;;
12760;SDS011;6444;49.742;6.114;2023-05-02T02:14:24;165.47;;;46.63;;
12760;SDS011;6444;49.742;6.114;2023-05-02T02:16:48;94.07;;;40.50;;
12760;SDS011;6444;49.742;6.114;2023-05-02T02:19:15;87.37;;;37.77;;
12760;SDS011;6444;49.742;6.114;2023-05-02T02:21:42;89.53;;;38.53;;
12760;SDS011;6444;49.742;6.114;2023-05-02T02:24:08;90.07;;;38.33;;
12760;SDS011;6444;49.742;6.114;2023-05-02T02:26:35;93.27;;;39.17;;
12760;SDS011;6444;49.742;6.114;2023-05-02T02:29:03;59.27;;;31.87;;
12760;SDS011;6444;49.742;6.114;2023-05-02T02:31:30;62.20;;;31.10;;
12760;SDS011;6444;49.742;6.114;2023-05-02T02:33:56;62.97;;;31.43;;
12760;SDS011;6444;49.742;6.114;2023-05-02T02:36:28;69.70;;;33.83;;
12760;SDS011;6444;49.742;6.114;2023-05-02T02:39:03;78.77;;;35.67;;
12760;SDS011;6444;49.742;6.114;2023-05-02T02:41:32;75.57;;;36.57;;
12760;SDS011;6444;49.742;6.114;2023-05-02T02:46:27;75.17;;;34.63;;
12760;SDS011;6444;49.742;6.114;2023-05-02T02:52:09;65.30;;;33.27;;
12760;SDS011;6444;49.742;6.114;2023-05-02T02:54:44;63.90;;;32.77;;
12760;SDS011;6444;49.742;6.114;2023-05-02T02:57:16;58.67;;;30.53;;
12760;SDS011;6444;49.742;6.114;2023-05-02T02:59:58;61.70;;;31.20;;
12760;SDS011;6444;49.742;6.114;2023-05-02T03:02:27;54.40;;;28.47;;
12760;SDS011;6444;49.742;6.114;2023-05-02T03:04:53;57.67;;;29.80;;
12760;SDS011;6444;49.742;6.114;2023-05-02T03:07:20;57.10;;;30.43;;
12760;SDS011;6444;49.742;6.114;2023-05-02T03:09:47;54.50;;;30.80;;
12760;SDS011;6444;49.742;6.114;2023-05-02T03:12:13;54.83;;;29.80;;
12760;SDS011;6444;49.742;6.114;2023-05-02T03:14:40;53.20;;;29.47;;
12760;SDS011;6444;49.742;6.114;2023-05-02T03:17:06;54.00;;;29.57;;
12760;SDS011;6444;49.742;6.114;2023-05-02T03:19:34;56.00;;;30.80;;
12760;SDS011;6444;49.742;6.114;2023-05-02T03:22:00;51.90;;;29.67;;
12760;SDS011;6444;49.742;6.114;2023-05-02T03:24:27;55.83;;;29.60;;
12760;SDS011;6444;49.742;6.114;2023-05-02T03:26:54;54.60;;;30.60;;
12760;SDS011;6444;49.742;6.114;2023-05-02T03:29:20;56.73;;;30.23;;
12760;SDS011;6444;49.742;6.114;2023-05-02T03:31:47;56.33;;;29.70;;
12760;SDS011;6444;49.742;6.114;2023-05-02T03:34:14;52.03;;;30.40;;
12760;SDS011;6444;49.742;6.114;2023-05-02T03:36:41;51.97;;;29.73;;
12760;SDS011;6444;49.742;6.114;2023-05-02T03:39:08;52.60;;;29.00;;
12760;SDS011;6444;49.742;6.114;2023-05-02T03:41:34;54.37;;;30.83;;
12760;SDS011;6444;49.742;6.114;2023-05-02T03:44:01;55.90;;;28.93;;
12760;SDS011;6444;49.742;6.114;2023-05-02T03:46:28;59.17;;;31.00;;
12760;SDS011;6444;49.742;6.114;2023-05-02T03:48:56;57.27;;;31.33;;
12760;SDS011;6444;49.742;6.114;2023-05-02T03:51:21;63.77;;;31.53;;
12760;SDS011;6444;49.742;6.114;2023-05-02T03:53:47;61.17;;;31.03;;
12760;SDS011;6444;49.742;6.114;2023-05-02T03:56:18;58.77;;;31.17;;
12760;SDS011;6444;49.742;6.114;2023-05-02T03:58:44;55.97;;;29.93;;
12760;SDS011;6444;49.742;6.114;2023-05-02T04:01:14;60.77;;;31.57;;
12760;SDS011;6444;49.742;6.114;2023-05-02T04:03:41;61.60;;;30.87;;
12760;SDS011;6444;49.742;6.114;2023-05-02T04:06:07;67.67;;;33.00;;
12760;SDS011;6444;49.742;6.114;2023-05-02T04:08:34;61.20;;;32.63;;
12760;SDS011;6444;49.742;6.114;2023-05-02T04:11:00;66.93;;;30.23;;
12760;SDS011;6444;49.742;6.114;2023-05-02T04:13:27;58.00;;;32.27;;
12760;SDS011;6444;49.742;6.114;2023-05-02T04:15:54;56.77;;;29.80;;
12760;SDS011;6444;49.742;6.114;2023-05-02T04:18:20;57.03;;;29.90;;
12760;SDS011;6444;49.742;6.114;2023-05-02T04:20:47;54.97;;;29.83;;
12760;SDS011;6444;49.742;6.114;2023-05-02T04:23:13;65.57;;;32.00;;
12760;SDS011;6444;49.742;6.114;2023-05-02T04:25:40;59.87;;;31.47;;
12760;SDS011;6444;49.742;6.114;2023-05-02T04:28:07;64.30;;;32.10;;
12760;SDS011;6444;49.742;6.114;2023-05-02T04:30:33;66.50;;;32.17;;
12760;SDS011;6444;49.742;6.114;2023-05-02T04:33:00;73.07;;;35.63;;
12760;SDS011;6444;49.742;6.114;2023-05-02T04:35:27;70.77;;;33.17;;
12760;SDS011;6444;49.742;6.114;2023-05-02T04:37:53;70.60;;;32.97;;
12760;SDS011;6444;49.742;6.114;2023-05-02T04:40:20;70.83;;;34.83;;
12760;SDS011;6444;49.742;6.114;2023-05-02T04:42:46;74.43;;;33.40;;
12760;SDS011;6444;49.742;6.114;2023-05-02T04:45:14;79.63;;;35.10;;
12760;SDS011;6444;49.742;6.114;2023-05-02T04:47:41;85.50;;;36.70;;
12760;SDS011;6444;49.742;6.114;2023-05-02T04:50:07;79.50;;;36.10;;
12760;SDS011;6444;49.742;6.114;2023-05-02T04:52:34;83.40;;;36.03;;
12760;SDS011;6444;49.742;6.114;2023-05-02T04:55:01;75.33;;;33.90;;
12760;SDS011;6444;49.742;6.114;2023-05-02T04:57:28;60.40;;;38.17;;
12760;SDS011;6444;49.742;6.114;2023-05-02T04:59:54;51.73;;;31.17;;
12760;SDS011;6444;49.742;6.114;2023-05-02T05:02:21;53.60;;;29.97;;
12760;SDS011;6444;49.742;6.114;2023-05-02T05:04:48;54.77;;;30.17;;
12760;SDS011;6444;49.742;6.114;2023-05-02T05:07:14;54.37;;;29.33;;
12760;SDS011;6444;49.742;6.114;2023-05-02T05:09:42;54.77;;;30.07;;
12760;SDS011;6444;49.742;6.114;2023-05-02T05:12:09;52.47;;;28.70;;
12760;SDS011;6444;49.742;6.114;2023-05-02T05:14:36;49.10;;;27.63;;
12760;SDS011;6444;49.742;6.114;2023-05-02T05:17:02;44.93;;;25.77;;
12760;SDS011;6444;49.742;6.114;2023-05-02T05:19:29;47.67;;;26.47;;
12760;SDS011;6444;49.742;6.114;2023-05-02T05:21:56;43.00;;;24.98;;
12760;SDS011;6444;49.742;6.114;2023-05-02T05:24:22;38.60;;;23.45;;
12760;SDS011;6444;49.742;6.114;2023-05-02T05:26:50;40.07;;;22.33;;
12760;SDS011;6444;49.742;6.114;2023-05-02T05:29:16;35.67;;;22.00;;
12760;SDS011;6444;49.742;6.114;2023-05-02T05:31:43;37.93;;;22.50;;
12760;SDS011;6444;49.742;6.114;2023-05-02T05:34:10;37.60;;;25.25;;
12760;SDS011;6444;49.742;6.114;2023-05-02T05:36:38;32.20;;;20.25;;
12760;SDS011;6444;49.742;6.114;2023-05-02T05:39:03;30.88;;;19.87;;
12760;SDS011;6444;49.742;6.114;2023-05-02T05:41:30;31.67;;;23.00;;
12760;SDS011;6444;49.742;6.114;2023-05-02T05:43:56;29.52;;;19.73;;
12760;SDS011;6444;49.742;6.114;2023-05-02T05:46:24;27.37;;;18.70;;
12760;SDS011;6444;49.742;6.114;2023-05-02T05:48:50;29.77;;;17.87;;
12760;SDS011;6444;49.742;6.114;2023-05-02T05:51:17;26.02;;;17.85;;
12760;SDS011;6444;49.742;6.114;2023-05-02T05:53:43;28.05;;;17.20;;
12760;SDS011;6444;49.742;6.114;2023-05-02T05:56:10;25.80;;;16.48;;
12760;SDS011;6444;49.742;6.114;2023-05-02T05:58:37;24.98;;;15.90;;
12760;SDS011;6444;49.742;6.114;2023-05-02T06:01:03;25.67;;;16.77;;
12760;SDS011;6444;49.742;6.114;2023-05-02T06:03:30;23.52;;;15.57;;
12760;SDS011;6444;49.742;6.114;2023-05-02T06:05:57;24.42;;;14.93;;
12760;SDS011;6444;49.742;6.114;2023-05-02T06:08:24;29.95;;;15.50;;
12760;SDS011;6444;49.742;6.114;2023-05-02T06:10:51;27.48;;;15.75;;
12760;SDS011;6444;49.742;6.114;2023-05-02T06:13:17;25.20;;;15.18;;
12760;SDS011;6444;49.742;6.114;2023-05-02T06:15:44;25.45;;;15.95;;
12760;SDS011;6444;49.742;6.114;2023-05-02T06:18:11;25.98;;;15.48;;
12760;SDS011;6444;49.742;6.114;2023-05-02T06:20:37;21.77;;;15.07;;
12760;SDS011;6444;49.742;6.114;2023-05-02T06:23:04;25.70;;;16.23;;
12760;SDS011;6444;49.742;6.114;2023-05-02T06:25:30;18.48;;;13.70;;
12760;SDS011;6444;49.742;6.114;2023-05-02T06:27:58;17.60;;;12.20;;
12760;SDS011;6444;49.742;6.114;2023-05-02T06:30:24;16.25;;;12.18;;
12760;SDS011;6444;49.742;6.114;2023-05-02T06:32:51;16.90;;;11.75;;
12760;SDS011;6444;49.742;6.114;2023-05-02T06:35:18;16.55;;;11.95;;
12760;SDS011;6444;49.742;6.114;2023-05-02T06:37:44;15.50;;;11.63;;
12760;SDS011;6444;49.742;6.114;2023-05-02T06:40:11;12.43;;;10.40;;
12760;SDS011;6444;49.742;6.114;2023-05-02T06:42:38;14.52;;;10.38;;
12760;SDS011;6444;49.742;6.114;2023-05-02T06:45:04;15.45;;;10.80;;
12760;SDS011;6444;49.742;6.114;2023-05-02T06:47:31;13.10;;;10.07;;
12760;SDS011;6444;49.742;6.114;2023-05-02T06:49:58;10.68;;;9.57;;
12760;SDS011;6444;49.742;6.114;2023-05-02T06:52:24;11.75;;;9.77;;
12760;SDS011;6444;49.742;6.114;2023-05-02T06:54:51;11.60;;;9.40;;
12760;SDS011;6444;49.742;6.114;2023-05-02T06:57:18;11.05;;;9.55;;
12760;SDS011;6444;49.742;6.114;2023-05-02T06:59:44;11.65;;;9.43;;
12760;SDS011;6444;49.742;6.114;2023-05-02T07:02:12;10.63;;;9.23;;
12760;SDS011;6444;49.742;6.114;2023-05-02T07:04:38;12.88;;;9.45;;
12760;SDS011;6444;49.742;6.114;2023-05-02T07:07:05;12.88;;;9.93;;
12760;SDS011;6444;49.742;6.114;2023-05-02T07:09:32;12.98;;;8.95;;
12760;SDS011;6444;49.742;6.114;2023-05-02T07:11:58;11.70;;;8.98;;
12760;SDS011;6444;49.742;6.114;2023-05-02T07:14:25;13.88;;;9.82;;
12760;SDS011;6444;49.742;6.114;2023-05-02T07:16:52;15.10;;;10.68;;
12760;SDS011;6444;49.742;6.114;2023-05-02T07:19:19;12.80;;;9.60;;
12760;SDS011;6444;49.742;6.114;2023-05-02T07:21:45;10.82;;;8.70;;
12760;SDS011;6444;49.742;6.114;2023-05-02T07:24:12;12.43;;;9.50;;
12760;SDS011;6444;49.742;6.114;2023-05-02T07:26:39;14.20;;;9.98;;
12760;SDS011;6444;49.742;6.114;2023-05-02T07:29:05;14.52;;;10.73;;
12760;SDS011;6444;49.742;6.114;2023-05-02T07:31:32;13.35;;;9.57;;
12760;SDS011;6444;49.742;6.114;2023-05-02T07:33:59;14.23;;;9.18;;
12760;SDS011;6444;49.742;6.114;2023-05-02T07:36:26;12.18;;;8.90;;
12760;SDS011;6444;49.742;6.114;2023-05-02T07:38:53;13.48;;;9.63;;
12760;SDS011;6444;49.742;6.114;2023-05-02T07:41:19;17.40;;;12.13;;
12760;SDS011;6444;49.742;6.114;2023-05-02T07:43:46;18.67;;;11.45;;
12760;SDS011;6444;49.742;6.114;2023-05-02T07:46:13;13.73;;;10.05;;
12760;SDS011;6444;49.742;6.114;2023-05-02T07:48:39;13.68;;;9.55;;
12760;SDS011;6444;49.742;6.114;2023-05-02T07:51:07;13.62;;;9.70;;
12760;SDS011;6444;49.742;6.114;2023-05-02T07:53:33;14.20;;;10.02;;
12760;SDS011;6444;49.742;6.114;2023-05-02T07:56:02;14.20;;;9.45;;
12760;SDS011;6444;49.742;6.114;2023-05-02T07:58:26;15.13;;;11.85;;
12760;SDS011;6444;49.742;6.114;2023-05-02T08:00:53;13.35;;;11.25;;
12760;SDS011;6444;49.742;6.114;2023-05-02T08:03:20;16.80;;;11.60;;
12760;SDS011;6444;49.742;6.114;2023-05-02T08:05:46;14.02;;;10.32;;
12760;SDS011;6444;49.742;6.114;2023-05-02T08:08:13;14.05;;;10.93;;
12760;SDS011;6444;49.742;6.114;2023-05-02T08:10:40;12.48;;;9.52;;
12760;SDS011;6444;49.742;6.114;2023-05-02T08:13:06;13.10;;;9.35;;
12760;SDS011;6444;49.742;6.114;2023-05-02T08:15:33;16.12;;;9.00;;
12760;SDS011;6444;49.742;6.114;2023-05-02T08:18:02;12.87;;;10.70;;
12760;SDS011;6444;49.742;6.114;2023-05-02T08:20:29;12.40;;;9.50;;
12760;SDS011;6444;49.742;6.114;2023-05-02T08:22:56;10.77;;;8.48;;
12760;SDS011;6444;49.742;6.114;2023-05-02T08:25:22;12.13;;;8.52;;
12760;SDS011;6444;49.742;6.114;2023-05-02T08:27:50;10.93;;;8.25;;
12760;SDS011;6444;49.742;6.114;2023-05-02T08:30:16;11.35;;;8.80;;
12760;SDS011;6444;49.742;6.114;2023-05-02T08:32:44;13.00;;;8.55;;
12760;SDS011;6444;49.742;6.114;2023-05-02T08:35:09;11.70;;;9.63;;
12760;SDS011;6444;49.742;6.114;2023-05-02T08:37:36;10.93;;;9.13;;
12760;SDS011;6444;49.742;6.114;2023-05-02T08:40:03;10.63;;;8.43;;
12760;SDS011;6444;49.742;6.114;2023-05-02T08:42:30;11.63;;;8.48;;
12760;SDS011;6444;49.742;6.114;2023-05-02T08:44:56;9.80;;;7.97;;
12760;SDS011;6444;49.742;6.114;2023-05-02T08:47:23;9.52;;;7.75;;
12760;SDS011;6444;49.742;6.114;2023-05-02T08:49:49;9.40;;;7.47;;
12760;SDS011;6444;49.742;6.114;2023-05-02T08:52:16;9.27;;;7.90;;
12760;SDS011;6444;49.742;6.114;2023-05-02T08:54:43;10.32;;;7.57;;
12760;SDS011;6444;49.742;6.114;2023-05-02T08:57:09;8.80;;;7.87;;
12760;SDS011;6444;49.742;6.114;2023-05-02T08:59:36;10.95;;;8.15;;
12760;SDS011;6444;49.742;6.114;2023-05-02T09:02:10;10.10;;;7.78;;
12760;SDS011;6444;49.742;6.114;2023-05-02T09:04:33;9.40;;;7.93;;
12760;SDS011;6444;49.742;6.114;2023-05-02T09:07:00;11.10;;;7.68;;
12760;SDS011;6444;49.742;6.114;2023-05-02T09:09:26;9.32;;;7.72;;
12760;SDS011;6444;49.742;6.114;2023-05-02T09:11:53;8.80;;;7.53;;
12760;SDS011;6444;49.742;6.114;2023-05-02T09:14:19;7.65;;;6.40;;
12760;SDS011;6444;49.742;6.114;2023-05-02T09:16:47;8.45;;;6.18;;
12760;SDS011;6444;49.742;6.114;2023-05-02T09:19:22;6.78;;;6.07;;
12760;SDS011;6444;49.742;6.114;2023-05-02T09:21:40;7.32;;;6.57;;
12760;SDS011;6444;49.742;6.114;2023-05-02T09:24:17;6.20;;;5.57;;
12760;SDS011;6444;49.742;6.114;2023-05-02T09:26:39;6.70;;;6.00;;
12760;SDS011;6444;49.742;6.114;2023-05-02T09:29:07;6.10;;;5.32;;
12760;SDS011;6444;49.742;6.114;2023-05-02T09:31:34;4.95;;;4.45;;
12760;SDS011;6444;49.742;6.114;2023-05-02T09:34:09;6.65;;;5.03;;
12760;SDS011;6444;49.742;6.114;2023-05-02T09:36:39;7.53;;;5.20;;
12760;SDS011;6444;49.742;6.114;2023-05-02T09:39:09;5.85;;;4.72;;
12760;SDS011;6444;49.742;6.114;2023-05-02T09:41:44;5.43;;;4.93;;
12760;SDS011;6444;49.742;6.114;2023-05-02T09:44:10;6.78;;;5.40;;
12760;SDS011;6444;49.742;6.114;2023-05-02T09:46:39;7.20;;;5.90;;
12760;SDS011;6444;49.742;6.114;2023-05-02T09:49:08;7.47;;;6.50;;
12760;SDS011;6444;49.742;6.114;2023-05-02T09:51:35;6.32;;;5.62;;
12760;SDS011;6444;49.742;6.114;2023-05-02T09:54:03;7.50;;;5.70;;
12760;SDS011;6444;49.742;6.114;2023-05-02T09:56:29;5.10;;;4.45;;
12760;SDS011;6444;49.742;6.114;2023-05-02T09:59:11;6.57;;;4.60;;
12760;SDS011;6444;49.742;6.114;2023-05-02T10:01:38;5.30;;;4.45;;
12760;SDS011;6444;49.742;6.114;2023-05-02T10:04:04;5.28;;;4.78;;
12760;SDS011;6444;49.742;6.114;2023-05-02T10:06:31;6.65;;;5.50;;
12760;SDS011;6444;49.742;6.114;2023-05-02T10:08:58;7.30;;;6.60;;
12760;SDS011;6444;49.742;6.114;2023-05-02T10:11:25;7.18;;;5.85;;
12760;SDS011;6444;49.742;6.114;2023-05-02T10:13:51;9.45;;;6.60;;
12760;SDS011;6444;49.742;6.114;2023-05-02T10:16:19;6.32;;;5.72;;
12760;SDS011;6444;49.742;6.114;2023-05-02T10:18:51;7.22;;;6.37;;
12760;SDS011;6444;49.742;6.114;2023-05-02T10:21:19;9.57;;;7.07;;
12760;SDS011;6444;49.742;6.114;2023-05-02T10:23:44;8.50;;;7.70;;
12760;SDS011;6444;49.742;6.114;2023-05-02T10:26:14;6.93;;;6.22;;
12760;SDS011;6444;49.742;6.114;2023-05-02T10:28:40;7.80;;;7.10;;
12760;SDS011;6444;49.742;6.114;2023-05-02T10:31:09;9.10;;;8.30;;
12760;SDS011;6444;49.742;6.114;2023-05-02T10:33:37;7.72;;;7.00;;
12760;SDS011;6444;49.742;6.114;2023-05-02T10:36:03;8.25;;;7.45;;
12760;SDS011;6444;49.742;6.114;2023-05-02T10:38:29;7.45;;;6.75;;
12760;SDS011;6444;49.742;6.114;2023-05-02T10:41:00;7.75;;;7.05;;
12760;SDS011;6444;49.742;6.114;2023-05-02T10:43:24;7.85;;;7.05;;
12760;SDS011;6444;49.742;6.114;2023-05-02T10:45:50;6.72;;;6.07;;
12760;SDS011;6444;49.742;6.114;2023-05-02T10:48:18;6.60;;;6.00;;
12760;SDS011;6444;49.742;6.114;2023-05-02T10:50:47;6.03;;;5.43;;
12760;SDS011;6444;49.742;6.114;2023-05-02T10:58:34;5.93;;;5.37;;
12760;SDS011;6444;49.742;6.114;2023-05-02T11:06:25;4.90;;;4.50;;
12760;SDS011;6444;49.742;6.114;2023-05-02T11:08:51;4.85;;;4.45;;
12760;SDS011;6444;49.742;6.114;2023-05-02T11:19:27;5.80;;;5.30;;
12760;SDS011;6444;49.742;6.114;2023-05-02T11:21:50;5.93;;;4.70;;
12760;SDS011;6444;49.742;6.114;2023-05-02T11:29:59;4.12;;;3.83;;
12760;SDS011;6444;49.742;6.114;2023-05-02T11:33:11;5.55;;;3.95;;
12760;SDS011;6444;49.742;6.114;2023-05-02T11:35:26;5.47;;;4.10;;
12760;SDS011;6444;49.742;6.114;2023-05-02T11:37:58;4.80;;;4.40;;
12760;SDS011;6444;49.742;6.114;2023-05-02T11:40:25;4.75;;;3.80;;
12760;SDS011;6444;49.742;6.114;2023-05-02T11:42:51;4.20;;;3.80;;
12760;SDS011;6444;49.742;6.114;2023-05-02T11:45:17;3.72;;;3.33;;
12760;SDS011;6444;49.742;6.114;2023-05-02T11:47:44;4.00;;;3.50;;
12760;SDS011;6444;49.742;6.114;2023-05-02T11:50:13;3.97;;;3.30;;
12760;SDS011;6444;49.742;6.114;2023-05-02T11:52:41;4.05;;;3.65;;
12760;SDS011;6444;49.742;6.114;2023-05-02T11:55:07;3.60;;;3.10;;
12760;SDS011;6444;49.742;6.114;2023-05-02T11:57:33;3.92;;;3.42;;
12760;SDS011;6444;49.742;6.114;2023-05-02T12:00:00;3.37;;;3.08;;
12760;SDS011;6444;49.742;6.114;2023-05-02T12:02:39;3.20;;;2.90;;
12760;SDS011;6444;49.742;6.114;2023-05-02T12:05:11;3.33;;;2.60;;
12760;SDS011;6444;49.742;6.114;2023-05-02T12:07:42;3.62;;;2.58;;
12760;SDS011;6444;49.742;6.114;2023-05-02T12:10:08;2.83;;;2.25;;
12760;SDS011;6444;49.742;6.114;2023-05-02T12:12:34;3.05;;;2.72;;
12760;SDS011;6444;49.742;6.114;2023-05-02T12:15:04;3.83;;;2.40;;
12760;SDS011;6444;49.742;6.114;2023-05-02T12:17:30;2.60;;;2.40;;
12760;SDS011;6444;49.742;6.114;2023-05-02T12:19:57;2.58;;;2.37;;
12760;SDS011;6444;49.742;6.114;2023-05-02T12:22:24;3.17;;;2.87;;
12760;SDS011;6444;49.742;6.114;2023-05-02T12:24:50;5.37;;;3.15;;
12760;SDS011;6444;49.742;6.114;2023-05-02T12:27:17;4.50;;;3.10;;
12760;SDS011;6444;49.742;6.114;2023-05-02T12:29:44;3.03;;;2.72;;
12760;SDS011;6444;49.742;6.114;2023-05-02T12:32:10;2.65;;;2.40;;
12760;SDS011;6444;49.742;6.114;2023-05-02T12:34:37;2.75;;;2.55;;
12760;SDS011;6444;49.742;6.114;2023-05-02T12:37:04;2.42;;;2.22;;
12760;SDS011;6444;49.742;6.114;2023-05-02T12:39:34;3.53;;;2.50;;
12760;SDS011;6444;49.742;6.114;2023-05-02T12:42:13;3.30;;;3.00;;
12760;SDS011;6444;49.742;6.114;2023-05-02T12:44:40;2.97;;;2.20;;
12760;SDS011;6444;49.742;6.114;2023-05-02T12:47:06;2.35;;;2.15;;
12760;SDS011;6444;49.742;6.114;2023-05-02T12:49:32;2.42;;;2.20;;
12760;SDS011;6444;49.742;6.114;2023-05-02T12:51:59;2.28;;;2.00;;
12760;SDS011;6444;49.742;6.114;2023-05-02T12:54:25;1.95;;;1.73;;
12760;SDS011;6444;49.742;6.114;2023-05-02T12:56:52;2.30;;;1.70;;
12760;SDS011;6444;49.742;6.114;2023-05-02T12:59:25;2.50;;;1.37;;
12760;SDS011;6444;49.742;6.114;2023-05-02T13:01:54;3.33;;;1.87;;
12760;SDS011;6444;49.742;6.114;2023-05-02T13:04:20;2.30;;;2.00;;
12760;SDS011;6444;49.742;6.114;2023-05-02T13:06:47;2.78;;;1.95;;
12760;SDS011;6444;49.742;6.114;2023-05-02T13:09:14;1.92;;;1.60;;
12760;SDS011;6444;49.742;6.114;2023-05-02T13:11:40;1.90;;;1.70;;
12760;SDS011;6444;49.742;6.114;2023-05-02T13:14:07;1.98;;;1.77;;
12760;SDS011;6444;49.742;6.114;2023-05-02T13:16:33;1.80;;;1.70;;
12760;SDS011;6444;49.742;6.114;2023-05-02T13:19:00;2.80;;;1.70;;
12760;SDS011;6444;49.742;6.114;2023-05-02T13:21:27;6.15;;;2.00;;
12760;SDS011;6444;49.742;6.114;2023-05-02T13:23:53;4.53;;;2.05;;
12760;SDS011;6444;49.742;6.114;2023-05-02T13:26:20;2.33;;;1.57;;
12760;SDS011;6444;49.742;6.114;2023-05-02T13:28:47;1.97;;;1.60;;
12760;SDS011;6444;49.742;6.114;2023-05-02T13:31:13;4.62;;;2.10;;
12760;SDS011;6444;49.742;6.114;2023-05-02T13:33:40;2.70;;;2.03;;
12760;SDS011;6444;49.742;6.114;2023-05-02T13:36:06;3.08;;;1.83;;
12760;SDS011;6444;49.742;6.114;2023-05-02T13:38:34;2.60;;;1.60;;
12760;SDS011;6444;49.742;6.114;2023-05-02T13:41:00;2.15;;;1.50;;
12760;SDS011;6444;49.742;6.114;2023-05-02T13:43:27;2.25;;;1.50;;
12760;SDS011;6444;49.742;6.114;2023-05-02T13:45:54;2.58;;;1.87;;
12760;SDS011;6444;49.742;6.114;2023-05-02T13:48:20;2.22;;;1.90;;
12760;SDS011;6444;49.742;6.114;2023-05-02T13:50:47;2.70;;;2.40;;
12760;SDS011;6444;49.742;6.114;2023-05-02T13:53:14;2.10;;;1.80;;
12760;SDS011;6444;49.742;6.114;2023-05-02T13:55:41;3.40;;;1.90;;
12760;SDS011;6444;49.742;6.114;2023-05-02T13:58:08;3.37;;;1.90;;
12760;SDS011;6444;49.742;6.114;2023-05-02T14:00:34;2.08;;;1.87;;
12760;SDS011;6444;49.742;6.114;2023-05-02T14:03:01;3.92;;;2.10;;
12760;SDS011;6444;49.742;6.114;2023-05-02T14:05:28;3.22;;;2.00;;
12760;SDS011;6444;49.742;6.114;2023-05-02T14:07:54;2.30;;;2.10;;
12760;SDS011;6444;49.742;6.114;2023-05-02T14:10:21;3.20;;;2.33;;
12760;SDS011;6444;49.742;6.114;2023-05-02T14:12:47;3.40;;;2.30;;
12760;SDS011;6444;49.742;6.114;2023-05-02T14:15:14;3.17;;;2.17;;
12760;SDS011;6444;49.742;6.114;2023-05-02T14:17:41;2.77;;;2.40;;
12760;SDS011;6444;49.742;6.114;2023-05-02T14:20:07;2.72;;;2.30;;
12760;SDS011;6444;49.742;6.114;2023-05-02T14:22:34;3.67;;;2.90;;
12760;SDS011;6444;49.742;6.114;2023-05-02T14:25:01;4.03;;;2.60;;
12760;SDS011;6444;49.742;6.114;2023-05-02T14:27:27;4.30;;;2.80;;
12760;SDS011;6444;49.742;6.114;2023-05-02T14:29:54;5.82;;;2.53;;
12760;SDS011;6444;49.742;6.114;2023-05-02T14:32:20;4.30;;;2.80;;
12760;SDS011;6444;49.742;6.114;2023-05-02T14:34:47;6.18;;;2.70;;
12760;SDS011;6444;49.742;6.114;2023-05-02T14:37:14;4.07;;;2.80;;
12760;SDS011;6444;49.742;6.114;2023-05-02T14:39:40;3.58;;;3.10;;
12760;SDS011;6444;49.742;6.114;2023-05-02T14:42:08;4.78;;;3.05;;
12760;SDS011;6444;49.742;6.114;2023-05-02T14:44:34;5.00;;;3.30;;
12760;SDS011;6444;49.742;6.114;2023-05-02T14:47:01;3.90;;;3.10;;
12760;SDS011;6444;49.742;6.114;2023-05-02T14:49:28;4.18;;;3.08;;
12760;SDS011;6444;49.742;6.114;2023-05-02T14:51:54;6.25;;;2.83;;
12760;SDS011;6444;49.742;6.114;2023-05-02T14:54:25;2.95;;;2.55;;
12760;SDS011;6444;49.742;6.114;2023-05-02T14:56:48;4.12;;;2.33;;
12760;SDS011;6444;49.742;6.114;2023-05-02T14:59:14;2.62;;;2.33;;
12760;SDS011;6444;49.742;6.114;2023-05-02T15:01:41;2.90;;;2.33;;
12760;SDS011;6444;49.742;6.114;2023-05-02T15:04:07;2.90;;;2.70;;
12760;SDS011;6444;49.742;6.114;2023-05-02T15:06:34;3.60;;;2.30;;
12760;SDS011;6444;49.742;6.114;2023-05-02T15:09:01;3.42;;;2.30;;
12760;SDS011;6444;49.742;6.114;2023-05-02T15:11:33;2.80;;;2.60;;
12760;SDS011;6444;49.742;6.114;2023-05-02T15:14:00;3.72;;;2.58;;
12760;SDS011;6444;49.742;6.114;2023-05-02T15:16:27;3.40;;;3.10;;
12760;SDS011;6444;49.742;6.114;2023-05-02T15:18:53;4.60;;;3.03;;
12760;SDS011;6444;49.742;6.114;2023-05-02T15:21:20;4.05;;;2.53;;
12760;SDS011;6444;49.742;6.114;2023-05-02T15:23:46;4.90;;;2.80;;
12760;SDS011;6444;49.742;6.114;2023-05-02T15:26:13;3.97;;;3.12;;
12760;SDS011;6444;49.742;6.114;2023-05-02T15:28:40;2.70;;;2.50;;
12760;SDS011;6444;49.742;6.114;2023-05-02T15:31:06;2.70;;;2.20;;
12760;SDS011;6444;49.742;6.114;2023-05-02T15:33:33;2.87;;;2.53;;